Ana Sayfa
METAR-TAF:

METAR-TAF

Havaalanları :

Brooks County Airport

Falfurrias, Teksas, Amerika Birleşik Devletleri

Enlem: 27-12-24N, Boylam: 098-07-16W, yükseklik: 34 m

Güncel hava durumu gözlemi

Rapor saat 09:15 UTC de 29 dakika önce yapıldı.
Rüzgar doğudan 4 kt
Sıcaklık 27°C
Nem 89%
Basınç 1015 hPa
Görüş mesafesi: 11.3 km
1200 ft yükseklikte parçalı bulutlu
2200 ft yükseklikte parçalı çok bulutlu
3200 ft yükseklikte parçalı çok bulutlu

METAR: KBKS 260915Z AUTO 09004KT 7SM SCT012 BKN022 BKN032 27/25 A2998 RMK AO1 T02670245

Saat: 04:44 (09:44 UTC)


TAF: eksik

4.000'den fazla havaalanı için hava durumu gözlemleri ve tahminleri (METAR ve TAF raporları).

Kullanılabilir istasyonlar harita üzerinde sarı ve kırmızı noktalarla gösterilir.

İstasyonun adını görmek için fareyi noktanın üzerinde gezdirin.

Sonrasında hava gözlem ve tahminlerini görmek için tıklayın.

Haritayı değiştirmek için: yaklaştırmak için siyah artı işaretli yeşil düğmeye ve uzaklaştırmak için de eksi işaretli düğmeye hızla tıklayın; bitişik haritalar için yeşil okları kullanın.


METAR-TAF: